createdAt,value
2017-10-27T00:01:53.311Z,90.64
2017-10-27T00:04:21.076Z,90.98
2017-10-27T00:06:48.743Z,91.22
2017-10-27T00:09:16.390Z,91.23
2017-10-27T00:11:44.256Z,91.14
2017-10-27T00:14:11.871Z,91.04
2017-10-27T00:16:39.531Z,90.86
2017-10-27T00:19:07.288Z,90.75
2017-10-27T00:21:34.907Z,90.90
2017-10-27T04:51:13.399Z,91.74
2017-10-27T04:53:41.135Z,92.37
2017-10-27T04:56:08.835Z,92.72
2017-10-27T04:58:36.560Z,92.65
2017-10-27T05:01:04.343Z,92.51
2017-10-27T05:03:31.947Z,92.60
2017-10-27T05:05:59.647Z,92.52
2017-10-27T05:08:27.504Z,92.50
2017-10-27T05:10:55.223Z,92.44
2017-10-27T05:13:22.857Z,92.64
2017-10-27T05:15:50.659Z,92.75
2017-10-27T05:18:23.812Z,92.71
2017-10-27T05:20:57.088Z,92.53
2017-10-27T05:23:30.399Z,92.58
2017-10-27T05:25:58.124Z,92.69
2017-10-27T05:28:25.743Z,92.47
2017-10-27T05:30:53.399Z,91.98
2017-10-27T05:33:21.140Z,91.75
2017-10-27T05:35:48.795Z,91.68
2017-10-27T05:38:16.425Z,91.95
2017-10-27T05:40:44.107Z,92.26
2017-10-27T05:43:11.780Z,92.33
2017-10-27T05:45:39.595Z,92.27
2017-10-27T05:48:07.362Z,92.30
2017-10-27T05:50:34.998Z,92.59
2017-10-27T05:53:02.776Z,92.02
2017-10-27T05:55:30.492Z,91.99
2017-10-27T05:57:58.137Z,92.12
2017-10-27T06:00:25.823Z,91.93
2017-10-27T06:02:53.731Z,92.00
2017-10-27T06:05:21.404Z,92.09
2017-10-27T06:07:49.047Z,92.02
2017-10-27T06:10:16.827Z,91.84
2017-10-27T06:12:44.478Z,91.94
2017-10-27T06:15:12.139Z,92.17
2017-10-27T06:17:39.841Z,92.34
2017-10-27T06:20:07.455Z,91.83
2017-10-27T06:22:35.228Z,91.98
2017-10-27T06:25:03.063Z,91.91
2017-10-27T06:27:30.767Z,91.74
2017-10-27T06:29:58.483Z,91.45
2017-10-27T06:32:26.239Z,90.67
2017-10-27T06:34:53.954Z,90.78
2017-10-27T06:37:21.676Z,90.07
2017-10-27T06:39:49.521Z,89.40
2017-10-27T06:42:17.411Z,88.18
2017-10-27T06:44:45.123Z,89.31
2017-10-27T06:47:12.868Z,86.47
2017-10-27T06:49:40.475Z,88.43
2017-10-27T06:52:08.079Z,88.47
2017-10-27T06:54:35.735Z,87.65
2017-10-27T06:57:03.464Z,88.02
2017-10-27T06:59:31.147Z,87.79
2017-10-27T07:01:58.827Z,87.46
2017-10-27T07:04:26.573Z,87.51
2017-10-27T07:06:54.274Z,86.88
2017-10-27T07:09:22.056Z,87.35
2017-10-27T07:11:49.767Z,85.67
2017-10-27T07:14:17.579Z,86.56
2017-10-27T07:16:45.323Z,85.66
2017-10-27T07:19:13.060Z,84.51
2017-10-27T07:21:40.784Z,85.59
2017-10-27T07:24:08.537Z,84.46
2017-10-27T07:26:36.202Z,85.82
2017-10-27T07:29:03.839Z,84.89
2017-10-27T07:31:31.706Z,85.04
2017-10-27T07:33:59.475Z,84.40
2017-10-27T07:36:27.142Z,84.37
2017-10-27T07:38:54.887Z,84.77
2017-10-27T07:41:22.547Z,83.55
2017-10-27T07:43:50.377Z,84.10
2017-10-27T07:46:18.114Z,84.28
2017-10-27T07:48:45.797Z,83.93
2017-10-27T07:51:13.580Z,83.61
2017-10-27T07:53:41.348Z,83.45
2017-10-27T07:56:09.151Z,83.54
2017-10-27T07:58:36.825Z,83.17
2017-10-27T08:01:04.610Z,83.39
2017-10-27T08:03:32.248Z,80.98
2017-10-27T08:06:00.056Z,80.81
2017-10-27T08:08:27.988Z,80.95
2017-10-27T08:10:55.651Z,78.88
2017-10-27T08:13:23.400Z,79.05
2017-10-27T08:15:51.304Z,77.49
2017-10-27T08:18:19.101Z,78.14
2017-10-27T08:20:46.812Z,77.19
2017-10-27T08:23:14.502Z,76.14
2017-10-27T08:25:42.220Z,74.91
2017-10-27T08:28:09.983Z,74.17
2017-10-27T08:30:37.712Z,75.32
2017-10-27T08:33:06.448Z,74.80
2017-10-27T08:35:34.083Z,74.16
2017-10-27T08:38:01.875Z,73.96
2017-10-27T08:40:29.582Z,74.75
2017-10-27T08:42:57.404Z,73.58
2017-10-27T08:45:25.095Z,73.73
2017-10-27T08:47:52.778Z,72.50
2017-10-27T08:50:20.547Z,73.07
2017-10-27T08:52:48.298Z,72.44
2017-10-27T08:55:16.076Z,72.47
2017-10-27T08:57:43.772Z,71.70
2017-10-27T09:00:11.460Z,72.21
2017-10-27T09:02:39.175Z,71.10
2017-10-27T09:05:06.855Z,71.21
2017-10-27T09:07:34.635Z,70.84
2017-10-27T09:10:02.383Z,70.00
2017-10-27T09:12:30.119Z,70.21
2017-10-27T09:14:57.894Z,70.33
2017-10-27T09:17:25.516Z,68.91
2017-10-27T09:19:53.196Z,67.78
2017-10-27T09:22:20.951Z,68.10
2017-10-27T09:24:48.582Z,66.57
2017-10-27T09:27:16.315Z,66.76
2017-10-27T09:29:44.035Z,67.21
2017-10-27T09:32:11.775Z,66.81
2017-10-27T09:34:39.468Z,64.84
2017-10-27T09:37:07.335Z,64.39
2017-10-27T09:39:35.111Z,64.65
2017-10-27T09:42:02.857Z,64.00
2017-10-27T09:44:30.659Z,63.20
2017-10-27T09:46:58.347Z,60.56
2017-10-27T09:49:26.108Z,59.86
2017-10-27T09:51:53.860Z,61.65
2017-10-27T09:54:21.516Z,59.38
2017-10-27T09:56:49.253Z,60.40
2017-10-27T09:59:17.160Z,61.15
2017-10-27T10:01:44.815Z,61.15
2017-10-27T10:04:12.609Z,59.45
2017-10-27T10:06:40.348Z,60.06
2017-10-27T10:09:08.083Z,58.83
2017-10-27T10:11:35.755Z,59.48
2017-10-27T10:14:03.645Z,59.54
2017-10-27T10:16:31.383Z,58.56
2017-10-27T10:18:59.067Z,58.69
2017-10-27T10:21:26.791Z,57.83
2017-10-27T10:23:54.562Z,58.08
2017-10-27T10:26:22.254Z,59.49
2017-10-27T10:28:50.004Z,57.35
2017-10-27T10:31:17.739Z,57.59
2017-10-27T10:33:45.396Z,57.35
2017-10-27T10:36:13.159Z,56.63
2017-10-27T10:38:40.766Z,55.61
2017-10-27T10:41:08.431Z,54.82
2017-10-27T10:43:36.159Z,51.67
2017-10-27T10:46:03.808Z,49.72
2017-10-27T10:48:31.415Z,49.32
2017-10-27T10:50:59.083Z,49.12
2017-10-27T10:53:26.775Z,48.03
2017-10-27T10:55:54.460Z,47.56
2017-10-27T10:58:22.137Z,45.16
2017-10-27T11:00:50.115Z,44.56
2017-10-27T11:03:17.829Z,43.50
2017-10-27T11:05:45.625Z,42.63
2017-10-27T11:08:13.303Z,43.40
2017-10-27T11:10:41.102Z,42.13
2017-10-27T11:13:09.008Z,41.68
2017-10-27T11:15:36.855Z,42.72
2017-10-27T11:18:04.670Z,44.14
2017-10-27T11:20:32.354Z,45.14
2017-10-27T11:23:00.014Z,45.63
2017-10-27T11:25:27.744Z,46.12
2017-10-27T11:27:55.504Z,47.33
2017-10-27T11:30:23.119Z,45.74
2017-10-27T11:32:50.771Z,44.98
2017-10-27T11:35:18.626Z,43.38
2017-10-27T11:37:46.368Z,41.69
2017-10-27T11:40:13.959Z,40.19
2017-10-27T11:42:41.819Z,39.04
2017-10-27T11:45:09.412Z,38.92
2017-10-27T11:47:37.111Z,41.28
2017-10-27T11:50:04.912Z,43.13
2017-10-27T11:52:32.616Z,43.91
2017-10-27T11:55:00.223Z,45.81
2017-10-27T11:57:27.931Z,46.98
2017-10-27T11:59:55.614Z,47.96
2017-10-27T12:02:23.259Z,48.17
2017-10-27T12:04:51.905Z,49.35
2017-10-27T12:07:19.619Z,50.91
2017-10-27T12:09:47.254Z,50.94
2017-10-27T12:12:14.967Z,51.37
2017-10-27T12:14:42.648Z,52.17
2017-10-27T12:17:10.327Z,52.38
2017-10-27T12:19:38.107Z,52.84
2017-10-27T12:22:05.731Z,53.57
2017-10-27T12:24:33.469Z,53.27
2017-10-27T12:27:01.321Z,54.24
2017-10-27T12:29:29.099Z,53.78
2017-10-27T12:31:56.770Z,54.21
2017-10-27T12:34:24.533Z,54.87
2017-10-27T12:36:52.239Z,54.37
2017-10-27T12:39:19.899Z,53.32
2017-10-27T12:41:47.668Z,53.93
2017-10-27T12:44:15.328Z,53.91
2017-10-27T12:46:42.942Z,54.30
2017-10-27T12:49:10.588Z,54.42
2017-10-27T12:51:38.258Z,54.13
2017-10-27T12:54:05.927Z,54.22
2017-10-27T12:56:33.677Z,54.17
2017-10-27T12:59:01.284Z,54.54
2017-10-27T13:01:29.000Z,54.46
2017-10-27T13:03:56.662Z,54.03
2017-10-27T13:06:24.268Z,53.95
2017-10-27T13:08:52.004Z,54.28
2017-10-27T13:11:19.772Z,54.25
2017-10-27T13:13:47.475Z,54.96
2017-10-27T13:16:15.128Z,54.98
2017-10-27T13:18:42.823Z,55.84
2017-10-27T13:21:10.460Z,55.79
2017-10-27T13:23:38.172Z,55.50
2017-10-27T13:26:06.064Z,55.31
2017-10-27T13:28:33.747Z,55.88
2017-10-27T13:31:01.395Z,55.99
2017-10-27T13:33:29.244Z,56.88
2017-10-27T13:35:56.903Z,57.11
2017-10-27T13:38:24.599Z,57.00
2017-10-27T13:40:52.372Z,57.22
2017-10-27T13:43:20.039Z,56.32
2017-10-27T13:45:47.803Z,56.78
2017-10-27T13:48:15.491Z,56.55
2017-10-27T13:50:43.123Z,57.06
2017-10-27T13:53:10.756Z,57.92
2017-10-27T13:55:38.486Z,57.20
2017-10-27T13:58:06.106Z,57.32
2017-10-27T14:00:33.878Z,57.57
2017-10-27T14:03:01.648Z,58.01
2017-10-27T14:05:29.296Z,57.71
2017-10-27T14:07:56.960Z,58.30
2017-10-27T14:10:24.735Z,59.36
2017-10-27T14:12:52.366Z,59.25
2017-10-27T14:15:20.064Z,58.95
2017-10-27T14:17:47.807Z,59.04
2017-10-27T14:20:15.572Z,60.48
2017-10-27T14:22:43.250Z,60.77
2017-10-27T14:25:10.968Z,61.45
2017-10-27T14:27:38.584Z,61.94
2017-10-27T14:30:06.191Z,62.46
2017-10-27T14:32:34.572Z,62.67
2017-10-27T14:35:02.192Z,62.88
2017-10-27T14:37:29.877Z,63.56
2017-10-27T14:39:57.696Z,63.91
2017-10-27T14:42:25.364Z,64.22
2017-10-27T14:44:53.096Z,65.33
2017-10-27T14:47:20.851Z,65.74
2017-10-27T14:49:48.466Z,66.88
2017-10-27T14:52:16.092Z,67.88
2017-10-27T14:54:43.953Z,68.61
2017-10-27T14:57:11.593Z,69.26
2017-10-27T14:59:39.267Z,69.81
2017-10-27T15:02:06.948Z,69.56
2017-10-27T15:04:34.556Z,70.78
2017-10-27T15:07:02.159Z,71.15
2017-10-27T15:09:29.892Z,71.85
2017-10-27T15:11:57.558Z,72.43
2017-10-27T15:14:25.188Z,73.59
2017-10-27T15:16:52.872Z,73.67
2017-10-27T15:19:20.559Z,74.38
2017-10-27T15:21:48.210Z,74.97
2017-10-27T15:24:15.883Z,75.19
2017-10-27T15:26:43.649Z,75.88
2017-10-27T15:29:11.339Z,76.56
2017-10-27T15:31:38.988Z,77.05
2017-10-27T15:34:06.679Z,77.43
2017-10-27T15:36:34.327Z,77.98
2017-10-27T15:39:01.989Z,78.32
2017-10-27T15:41:29.631Z,78.90
2017-10-27T15:43:57.239Z,79.32
2017-10-27T15:46:24.976Z,79.87
2017-10-27T15:48:52.615Z,80.58
2017-10-27T15:51:20.292Z,79.99
2017-10-27T15:53:48.144Z,80.48
2017-10-27T15:56:15.887Z,80.28
2017-10-27T15:58:43.534Z,80.59
2017-10-27T16:01:11.248Z,80.85
2017-10-27T16:03:38.903Z,81.35
2017-10-27T16:06:06.621Z,81.59
2017-10-27T16:08:34.347Z,81.97
2017-10-27T16:11:02.034Z,82.09
2017-10-27T16:13:29.716Z,81.68
2017-10-27T16:15:57.369Z,81.66
2017-10-27T16:18:24.974Z,81.99
2017-10-27T16:20:52.635Z,82.29
2017-10-27T16:23:20.296Z,82.53
2017-10-27T16:25:47.927Z,83.19
2017-10-27T16:28:15.591Z,83.03
2017-10-27T16:30:43.285Z,83.26
2017-10-27T16:33:10.900Z,83.41
2017-10-27T16:35:38.503Z,83.56
2017-10-27T16:38:06.240Z,83.89
2017-10-27T16:40:33.844Z,84.38
2017-10-27T16:43:01.459Z,84.31
2017-10-27T16:45:29.204Z,84.25
2017-10-27T16:47:56.899Z,84.24
2017-10-27T16:50:24.579Z,83.89
2017-10-27T16:52:52.335Z,83.62
2017-10-27T16:55:19.957Z,83.18
2017-10-27T16:57:47.592Z,83.12
2017-10-27T17:00:15.359Z,83.11
2017-10-27T17:02:43.088Z,82.84
2017-10-27T17:05:10.720Z,82.28
2017-10-27T17:07:38.387Z,82.27
2017-10-27T17:10:06.133Z,82.11
2017-10-27T17:12:34.560Z,81.72
2017-10-27T17:15:02.334Z,81.56
2017-10-27T17:17:29.952Z,81.14
2017-10-27T17:19:57.575Z,81.25
2017-10-27T17:22:25.274Z,81.03
2017-10-27T17:24:52.956Z,81.33
2017-10-27T17:27:20.657Z,80.94
2017-10-27T17:29:48.390Z,81.05
2017-10-27T17:32:16.027Z,80.64
2017-10-27T17:34:43.678Z,80.84
2017-10-27T17:37:11.352Z,80.85
2017-10-27T17:39:39.032Z,80.87
2017-10-27T17:42:06.645Z,80.82
2017-10-27T17:44:34.333Z,80.87
2017-10-27T17:47:02.144Z,81.12
2017-10-27T17:49:29.817Z,81.36
2017-10-27T17:51:57.604Z,81.41
2017-10-27T17:54:25.290Z,81.35
2017-10-27T17:56:53.044Z,81.43
2017-10-27T17:59:20.836Z,81.69
2017-10-27T18:01:48.629Z,82.17
2017-10-27T18:04:16.320Z,82.44
2017-10-27T18:06:44.060Z,82.47
2017-10-27T18:09:11.768Z,82.56
2017-10-27T18:11:39.371Z,82.45
2017-10-27T18:14:07.087Z,82.56
2017-10-27T18:16:34.791Z,82.66
2017-10-27T18:19:02.536Z,82.39
2017-10-27T18:21:30.333Z,82.57
2017-10-27T18:23:58.054Z,82.53
2017-10-27T18:26:25.725Z,82.89
2017-10-27T18:28:53.472Z,82.82
2017-10-27T18:31:21.082Z,83.24
2017-10-27T18:33:48.761Z,83.39
2017-10-27T18:36:16.441Z,83.22
2017-10-27T18:38:44.183Z,83.39
2017-10-27T18:41:11.810Z,83.62
2017-10-27T18:43:39.749Z,83.38
2017-10-27T18:46:07.367Z,83.33
2017-10-27T18:48:35.085Z,83.49
2017-10-27T18:51:02.812Z,83.19
2017-10-27T18:53:30.901Z,83.02
2017-10-27T18:55:58.505Z,83.27
2017-10-27T18:58:26.236Z,83.20
2017-10-27T19:00:54.109Z,83.67
2017-10-27T19:03:21.771Z,83.61
2017-10-27T19:05:49.484Z,83.42
2017-10-27T19:08:17.165Z,83.15
2017-10-27T19:10:44.835Z,83.25
2017-10-27T19:13:12.540Z,83.13
2017-10-27T19:15:40.156Z,83.03
2017-10-27T19:18:07.759Z,83.04
2017-10-27T19:20:35.500Z,83.30
2017-10-27T19:23:03.168Z,83.14
2017-10-27T19:25:30.858Z,82.87
2017-10-27T19:27:58.516Z,82.69
2017-10-27T19:30:26.132Z,82.67
2017-10-27T19:32:53.736Z,82.74
2017-10-27T19:35:21.416Z,83.01
2017-10-27T19:37:49.857Z,83.18
2017-10-27T19:40:17.497Z,83.29
2017-10-27T19:42:45.241Z,83.39
2017-10-27T19:45:12.928Z,83.48
2017-10-27T19:47:40.591Z,84.05
2017-10-27T19:50:08.240Z,83.93
2017-10-27T19:52:35.843Z,83.80
2017-10-27T19:55:03.471Z,83.53
2017-10-27T19:57:31.261Z,83.35
2017-10-27T19:59:58.867Z,83.01
2017-10-27T20:02:26.576Z,83.05
2017-10-27T20:04:54.848Z,83.12
2017-10-27T20:07:22.596Z,83.40
2017-10-27T20:09:50.357Z,83.52
2017-10-27T20:12:18.086Z,83.17
2017-10-27T20:14:45.755Z,83.04
2017-10-27T20:17:13.371Z,83.02
2017-10-27T20:19:41.047Z,83.03
2017-10-27T20:22:08.704Z,83.27
2017-10-27T20:24:36.378Z,83.03
2017-10-27T20:27:04.033Z,83.15
2017-10-27T20:29:31.741Z,83.21
2017-10-27T20:31:59.527Z,83.05
2017-10-27T20:34:27.188Z,82.98
2017-10-27T20:36:54.852Z,83.00
2017-10-27T20:39:22.516Z,83.14
2017-10-27T20:41:50.196Z,83.33
2017-10-27T20:44:17.804Z,83.37
2017-10-27T20:46:45.472Z,83.48
2017-10-27T20:49:13.188Z,83.63
2017-10-27T20:51:40.815Z,83.74
2017-10-27T20:54:09.151Z,83.80
2017-10-27T20:56:36.810Z,84.02
2017-10-27T20:59:04.434Z,84.09
2017-10-27T21:01:32.137Z,83.91
2017-10-27T21:03:59.804Z,83.90
2017-10-27T21:06:27.411Z,83.71
2017-10-27T21:08:55.076Z,83.50
2017-10-27T21:11:22.736Z,83.78
2017-10-27T21:13:50.340Z,83.75
2017-10-27T21:16:17.949Z,83.71
2017-10-27T21:18:45.640Z,83.80
2017-10-27T21:21:13.250Z,83.91
2017-10-27T21:23:40.858Z,83.86
2017-10-27T21:26:08.503Z,83.77
2017-10-27T21:28:36.217Z,83.67
2017-10-27T21:31:03.819Z,83.77
2017-10-27T21:33:31.479Z,83.74
2017-10-27T21:35:59.104Z,83.62
2017-10-27T21:38:26.721Z,83.46
2017-10-27T21:40:54.437Z,83.45
2017-10-27T21:43:22.043Z,83.20
2017-10-27T21:45:49.643Z,83.26
2017-10-27T21:48:17.307Z,83.32
2017-10-27T21:50:44.972Z,83.22
2017-10-27T21:53:12.599Z,83.11
2017-10-27T21:55:40.255Z,82.83
2017-10-27T21:58:08.025Z,82.69
2017-10-27T22:00:35.803Z,82.33
2017-10-27T22:03:03.797Z,82.28
2017-10-27T22:05:31.466Z,82.70
2017-10-27T22:07:59.075Z,82.83
2017-10-27T22:10:26.747Z,82.75
2017-10-27T22:12:55.263Z,82.98
2017-10-27T22:15:22.935Z,82.88
2017-10-27T22:17:50.599Z,83.19
2017-10-27T22:20:18.227Z,82.84
2017-10-27T22:22:46.739Z,82.70
2017-10-27T22:25:14.557Z,82.87
2017-10-27T22:27:42.171Z,82.89
2017-10-27T22:30:09.778Z,83.12
2017-10-27T22:32:37.423Z,83.15
2017-10-27T22:35:05.089Z,83.48
2017-10-27T22:37:32.762Z,83.54
2017-10-27T22:40:00.477Z,83.54
2017-10-27T22:42:28.090Z,83.86
2017-10-27T22:44:55.758Z,84.26
2017-10-27T22:47:23.496Z,84.24
2017-10-27T22:49:51.099Z,84.35
2017-10-27T22:52:18.717Z,84.41
2017-10-27T22:54:46.432Z,84.34
2017-10-27T22:57:14.088Z,84.18
2017-10-27T22:59:42.396Z,84.16
2017-10-27T23:02:10.068Z,84.32
2017-10-27T23:04:37.943Z,82.66
2017-10-27T23:07:05.538Z,80.97
2017-10-27T23:09:33.263Z,80.92
2017-10-27T23:12:00.920Z,80.07
2017-10-27T23:14:28.691Z,79.42
2017-10-27T23:16:56.407Z,78.74
2017-10-27T23:19:24.016Z,77.83
2017-10-27T23:21:51.649Z,76.20
2017-10-27T23:24:20.420Z,75.78
2017-10-27T23:26:48.128Z,73.19
2017-10-27T23:29:15.869Z,71.43
2017-10-27T23:31:43.623Z,73.23
2017-10-27T23:34:11.311Z,73.01
2017-10-27T23:36:38.915Z,72.75
2017-10-27T23:39:06.705Z,72.49
2017-10-27T23:41:34.416Z,72.15
2017-10-27T23:44:02.093Z,71.37
2017-10-27T23:46:30.176Z,70.78
2017-10-27T23:48:57.992Z,70.54
2017-10-27T23:51:25.651Z,70.34
2017-10-27T23:53:53.403Z,71.04
2017-10-27T23:56:21.003Z,70.97
2017-10-27T23:58:49.495Z,71.46
